sensor_id;sensor_type;location;lat;lon;timestamp;P1;durP1;ratioP1;P2;durP2;ratioP2
44822;SDS011;51097;51.984;5.650;2023-09-19T00:01:12;8.38;;;1.80;;
44822;SDS011;51097;51.984;5.650;2023-09-19T00:03:39;3.10;;;1.58;;
44822;SDS011;51097;51.984;5.650;2023-09-19T00:06:07;4.85;;;1.92;;
44822;SDS011;51097;51.984;5.650;2023-09-19T00:08:36;7.75;;;2.17;;
44822;SDS011;51097;51.984;5.650;2023-09-19T00:11:02;6.75;;;1.90;;
44822;SDS011;51097;51.984;5.650;2023-09-19T00:13:34;6.90;;;2.67;;
44822;SDS011;51097;51.984;5.650;2023-09-19T00:16:01;7.28;;;1.85;;
44822;SDS011;51097;51.984;5.650;2023-09-19T00:18:26;7.45;;;1.73;;
44822;SDS011;51097;51.984;5.650;2023-09-19T00:20:57;4.47;;;1.48;;
44822;SDS011;51097;51.984;5.650;2023-09-19T00:23:23;5.30;;;2.28;;
44822;SDS011;51097;51.984;5.650;2023-09-19T00:25:49;7.57;;;2.53;;
44822;SDS011;51097;51.984;5.650;2023-09-19T00:28:16;6.30;;;1.92;;
44822;SDS011;51097;51.984;5.650;2023-09-19T00:30:43;5.50;;;1.60;;
44822;SDS011;51097;51.984;5.650;2023-09-19T00:33:09;5.15;;;1.75;;
44822;SDS011;51097;51.984;5.650;2023-09-19T00:35:36;5.07;;;2.00;;
44822;SDS011;51097;51.984;5.650;2023-09-19T00:38:02;6.15;;;1.83;;
44822;SDS011;51097;51.984;5.650;2023-09-19T00:40:28;5.70;;;2.20;;
44822;SDS011;51097;51.984;5.650;2023-09-19T00:42:57;4.47;;;2.25;;
44822;SDS011;51097;51.984;5.650;2023-09-19T00:45:26;6.75;;;2.80;;
44822;SDS011;51097;51.984;5.650;2023-09-19T00:47:53;8.10;;;2.17;;
44822;SDS011;51097;51.984;5.650;2023-09-19T00:50:19;7.85;;;2.00;;
44822;SDS011;51097;51.984;5.650;2023-09-19T00:52:52;12.15;;;3.47;;
44822;SDS011;51097;51.984;5.650;2023-09-19T00:55:21;8.75;;;2.90;;
44822;SDS011;51097;51.984;5.650;2023-09-19T00:57:48;7.28;;;2.63;;
44822;SDS011;51097;51.984;5.650;2023-09-19T01:00:16;10.63;;;3.08;;
44822;SDS011;51097;51.984;5.650;2023-09-19T01:02:44;6.78;;;2.95;;
44822;SDS011;51097;51.984;5.650;2023-09-19T01:05:11;8.95;;;2.10;;
44822;SDS011;51097;51.984;5.650;2023-09-19T01:07:37;8.02;;;2.38;;
44822;SDS011;51097;51.984;5.650;2023-09-19T01:10:07;17.50;;;3.92;;
44822;SDS011;51097;51.984;5.650;2023-09-19T01:15:11;7.80;;;2.70;;
44822;SDS011;51097;51.984;5.650;2023-09-19T01:18:11;7.00;;;3.25;;
44822;SDS011;51097;51.984;5.650;2023-09-19T01:20:50;8.98;;;2.85;;
44822;SDS011;51097;51.984;5.650;2023-09-19T01:32:04;5.72;;;2.47;;
44822;SDS011;51097;51.984;5.650;2023-09-19T01:34:44;11.07;;;2.78;;
44822;SDS011;51097;51.984;5.650;2023-09-19T01:37:15;11.13;;;2.60;;
44822;SDS011;51097;51.984;5.650;2023-09-19T01:39:45;8.80;;;2.22;;
44822;SDS011;51097;51.984;5.650;2023-09-19T01:45:24;5.72;;;1.88;;
44822;SDS011;51097;51.984;5.650;2023-09-19T01:53:39;6.95;;;1.92;;
44822;SDS011;51097;51.984;5.650;2023-09-19T01:56:07;9.57;;;2.13;;
44822;SDS011;51097;51.984;5.650;2023-09-19T01:58:37;9.52;;;2.15;;
44822;SDS011;51097;51.984;5.650;2023-09-19T02:01:08;10.00;;;2.85;;
44822;SDS011;51097;51.984;5.650;2023-09-19T02:03:38;6.50;;;1.83;;
44822;SDS011;51097;51.984;5.650;2023-09-19T02:06:04;9.55;;;2.92;;
44822;SDS011;51097;51.984;5.650;2023-09-19T02:08:30;9.50;;;2.97;;
44822;SDS011;51097;51.984;5.650;2023-09-19T02:10:58;5.35;;;2.35;;
44822;SDS011;51097;51.984;5.650;2023-09-19T02:13:24;6.85;;;2.10;;
44822;SDS011;51097;51.984;5.650;2023-09-19T02:15:53;8.82;;;2.47;;
44822;SDS011;51097;51.984;5.650;2023-09-19T02:18:18;9.00;;;3.05;;
44822;SDS011;51097;51.984;5.650;2023-09-19T02:20:45;12.13;;;2.50;;
44822;SDS011;51097;51.984;5.650;2023-09-19T02:23:11;12.68;;;2.75;;
44822;SDS011;51097;51.984;5.650;2023-09-19T02:25:38;14.55;;;2.75;;
44822;SDS011;51097;51.984;5.650;2023-09-19T02:28:05;6.47;;;2.38;;
44822;SDS011;51097;51.984;5.650;2023-09-19T02:30:31;8.88;;;2.10;;
44822;SDS011;51097;51.984;5.650;2023-09-19T02:32:57;15.32;;;2.88;;
44822;SDS011;51097;51.984;5.650;2023-09-19T02:35:26;7.32;;;3.25;;
44822;SDS011;51097;51.984;5.650;2023-09-19T02:37:53;6.47;;;2.53;;
44822;SDS011;51097;51.984;5.650;2023-09-19T02:40:18;7.85;;;2.28;;
44822;SDS011;51097;51.984;5.650;2023-09-19T02:42:47;9.05;;;2.33;;
44822;SDS011;51097;51.984;5.650;2023-09-19T02:45:15;11.32;;;3.85;;
44822;SDS011;51097;51.984;5.650;2023-09-19T02:47:43;8.93;;;2.30;;
44822;SDS011;51097;51.984;5.650;2023-09-19T02:50:09;9.82;;;2.47;;
44822;SDS011;51097;51.984;5.650;2023-09-19T02:52:36;9.80;;;2.22;;
44822;SDS011;51097;51.984;5.650;2023-09-19T02:55:02;9.68;;;2.42;;
44822;SDS011;51097;51.984;5.650;2023-09-19T02:57:29;10.25;;;2.47;;
44822;SDS011;51097;51.984;5.650;2023-09-19T02:59:58;11.95;;;2.33;;
44822;SDS011;51097;51.984;5.650;2023-09-19T03:02:25;9.55;;;3.78;;
44822;SDS011;51097;51.984;5.650;2023-09-19T03:04:52;8.73;;;2.10;;
44822;SDS011;51097;51.984;5.650;2023-09-19T03:07:18;9.38;;;2.45;;
44822;SDS011;51097;51.984;5.650;2023-09-19T03:09:44;9.40;;;2.10;;
44822;SDS011;51097;51.984;5.650;2023-09-19T03:12:10;5.93;;;2.20;;
44822;SDS011;51097;51.984;5.650;2023-09-19T03:14:35;8.55;;;2.85;;
44822;SDS011;51097;51.984;5.650;2023-09-19T03:17:01;16.60;;;4.00;;
44822;SDS011;51097;51.984;5.650;2023-09-19T03:19:30;12.93;;;2.33;;
44822;SDS011;51097;51.984;5.650;2023-09-19T03:21:58;8.30;;;2.10;;
44822;SDS011;51097;51.984;5.650;2023-09-19T03:24:24;12.20;;;2.40;;
44822;SDS011;51097;51.984;5.650;2023-09-19T03:26:50;13.65;;;2.63;;
44822;SDS011;51097;51.984;5.650;2023-09-19T03:29:16;11.10;;;2.53;;
44822;SDS011;51097;51.984;5.650;2023-09-19T03:31:42;15.40;;;3.10;;
44822;SDS011;51097;51.984;5.650;2023-09-19T03:34:07;6.25;;;2.10;;
44822;SDS011;51097;51.984;5.650;2023-09-19T03:36:34;8.98;;;2.72;;
44822;SDS011;51097;51.984;5.650;2023-09-19T03:38:59;7.85;;;2.05;;
44822;SDS011;51097;51.984;5.650;2023-09-19T03:41:25;7.10;;;2.38;;
44822;SDS011;51097;51.984;5.650;2023-09-19T03:43:51;12.68;;;3.20;;
44822;SDS011;51097;51.984;5.650;2023-09-19T03:46:17;9.38;;;2.25;;
44822;SDS011;51097;51.984;5.650;2023-09-19T03:48:42;7.57;;;2.53;;
44822;SDS011;51097;51.984;5.650;2023-09-19T03:51:08;5.60;;;2.17;;
44822;SDS011;51097;51.984;5.650;2023-09-19T03:53:34;12.23;;;2.75;;
44822;SDS011;51097;51.984;5.650;2023-09-19T03:55:59;14.23;;;3.13;;
44822;SDS011;51097;51.984;5.650;2023-09-19T03:58:25;8.68;;;2.20;;
44822;SDS011;51097;51.984;5.650;2023-09-19T04:00:54;12.13;;;2.80;;
44822;SDS011;51097;51.984;5.650;2023-09-19T04:03:20;8.48;;;2.45;;
44822;SDS011;51097;51.984;5.650;2023-09-19T04:05:46;6.03;;;2.40;;
44822;SDS011;51097;51.984;5.650;2023-09-19T04:08:15;10.25;;;1.60;;
44822;SDS011;51097;51.984;5.650;2023-09-19T04:10:43;7.25;;;1.80;;
44822;SDS011;51097;51.984;5.650;2023-09-19T04:13:10;10.93;;;3.45;;
44822;SDS011;51097;51.984;5.650;2023-09-19T04:15:36;15.23;;;3.03;;
44822;SDS011;51097;51.984;5.650;2023-09-19T04:18:02;10.27;;;2.80;;
44822;SDS011;51097;51.984;5.650;2023-09-19T04:20:28;14.25;;;2.40;;
44822;SDS011;51097;51.984;5.650;2023-09-19T04:22:54;12.57;;;2.65;;
44822;SDS011;51097;51.984;5.650;2023-09-19T04:25:20;10.05;;;2.58;;
44822;SDS011;51097;51.984;5.650;2023-09-19T04:27:46;9.30;;;2.60;;
44822;SDS011;51097;51.984;5.650;2023-09-19T04:30:12;13.20;;;1.98;;
44822;SDS011;51097;51.984;5.650;2023-09-19T04:32:39;6.15;;;1.95;;
44822;SDS011;51097;51.984;5.650;2023-09-19T04:35:06;10.77;;;2.47;;
44822;SDS011;51097;51.984;5.650;2023-09-19T04:37:34;9.60;;;2.15;;
44822;SDS011;51097;51.984;5.650;2023-09-19T04:40:02;7.85;;;2.83;;
44822;SDS011;51097;51.984;5.650;2023-09-19T04:42:31;7.28;;;2.25;;
44822;SDS011;51097;51.984;5.650;2023-09-19T04:44:56;7.80;;;2.17;;
44822;SDS011;51097;51.984;5.650;2023-09-19T04:47:22;11.10;;;3.15;;
44822;SDS011;51097;51.984;5.650;2023-09-19T04:49:47;9.27;;;2.13;;
44822;SDS011;51097;51.984;5.650;2023-09-19T04:52:13;11.10;;;2.30;;
44822;SDS011;51097;51.984;5.650;2023-09-19T04:54:40;7.40;;;2.17;;
44822;SDS011;51097;51.984;5.650;2023-09-19T04:57:06;8.63;;;2.53;;
44822;SDS011;51097;51.984;5.650;2023-09-19T04:59:32;13.40;;;2.33;;
44822;SDS011;51097;51.984;5.650;2023-09-19T05:01:58;9.82;;;2.10;;
44822;SDS011;51097;51.984;5.650;2023-09-19T05:04:23;8.32;;;1.90;;
44822;SDS011;51097;51.984;5.650;2023-09-19T05:06:49;11.77;;;2.35;;
44822;SDS011;51097;51.984;5.650;2023-09-19T05:09:15;8.77;;;2.63;;
44822;SDS011;51097;51.984;5.650;2023-09-19T05:14:11;11.73;;;4.15;;
44822;SDS011;51097;51.984;5.650;2023-09-19T05:16:37;11.50;;;2.30;;
44822;SDS011;51097;51.984;5.650;2023-09-19T05:19:02;6.78;;;1.75;;
44822;SDS011;51097;51.984;5.650;2023-09-19T05:21:29;9.05;;;2.17;;
44822;SDS011;51097;51.984;5.650;2023-09-19T05:23:56;8.85;;;2.58;;
44822;SDS011;51097;51.984;5.650;2023-09-19T05:26:21;7.00;;;2.00;;
44822;SDS011;51097;51.984;5.650;2023-09-19T05:28:47;17.30;;;2.75;;
44822;SDS011;51097;51.984;5.650;2023-09-19T05:31:13;8.23;;;2.05;;
44822;SDS011;51097;51.984;5.650;2023-09-19T05:33:39;6.93;;;2.15;;
44822;SDS011;51097;51.984;5.650;2023-09-19T05:36:04;8.93;;;2.40;;
44822;SDS011;51097;51.984;5.650;2023-09-19T05:38:30;11.88;;;2.58;;
44822;SDS011;51097;51.984;5.650;2023-09-19T05:40:57;9.32;;;2.53;;
44822;SDS011;51097;51.984;5.650;2023-09-19T05:43:23;5.40;;;1.63;;
44822;SDS011;51097;51.984;5.650;2023-09-19T05:45:49;10.85;;;2.53;;
44822;SDS011;51097;51.984;5.650;2023-09-19T05:48:17;11.05;;;2.35;;
44822;SDS011;51097;51.984;5.650;2023-09-19T05:50:42;10.32;;;2.53;;
44822;SDS011;51097;51.984;5.650;2023-09-19T05:53:09;7.03;;;2.60;;
44822;SDS011;51097;51.984;5.650;2023-09-19T05:55:39;6.40;;;1.95;;
44822;SDS011;51097;51.984;5.650;2023-09-19T05:58:05;8.30;;;1.92;;
44822;SDS011;51097;51.984;5.650;2023-09-19T06:00:31;7.97;;;2.75;;
44822;SDS011;51097;51.984;5.650;2023-09-19T06:02:57;7.97;;;2.28;;
44822;SDS011;51097;51.984;5.650;2023-09-19T06:05:24;12.07;;;3.17;;
44822;SDS011;51097;51.984;5.650;2023-09-19T06:07:51;14.10;;;3.40;;
44822;SDS011;51097;51.984;5.650;2023-09-19T06:10:17;7.13;;;1.92;;
44822;SDS011;51097;51.984;5.650;2023-09-19T06:12:43;11.52;;;2.60;;
44822;SDS011;51097;51.984;5.650;2023-09-19T06:15:09;12.18;;;2.15;;
44822;SDS011;51097;51.984;5.650;2023-09-19T06:17:40;11.65;;;2.08;;
44822;SDS011;51097;51.984;5.650;2023-09-19T06:20:07;13.27;;;2.50;;
44822;SDS011;51097;51.984;5.650;2023-09-19T06:22:39;12.63;;;2.63;;
44822;SDS011;51097;51.984;5.650;2023-09-19T06:25:06;12.18;;;2.85;;
44822;SDS011;51097;51.984;5.650;2023-09-19T06:27:33;9.25;;;2.38;;
44822;SDS011;51097;51.984;5.650;2023-09-19T06:30:01;10.80;;;2.33;;
44822;SDS011;51097;51.984;5.650;2023-09-19T06:32:27;10.52;;;3.47;;
44822;SDS011;51097;51.984;5.650;2023-09-19T06:34:53;8.98;;;2.20;;
44822;SDS011;51097;51.984;5.650;2023-09-19T06:37:20;10.15;;;2.50;;
44822;SDS011;51097;51.984;5.650;2023-09-19T06:39:46;12.90;;;2.97;;
44822;SDS011;51097;51.984;5.650;2023-09-19T06:42:14;12.50;;;2.17;;
44822;SDS011;51097;51.984;5.650;2023-09-19T06:44:42;12.32;;;2.33;;
44822;SDS011;51097;51.984;5.650;2023-09-19T06:47:08;7.93;;;2.30;;
44822;SDS011;51097;51.984;5.650;2023-09-19T06:49:35;9.07;;;2.55;;
44822;SDS011;51097;51.984;5.650;2023-09-19T06:52:00;13.52;;;2.22;;
44822;SDS011;51097;51.984;5.650;2023-09-19T06:54:27;14.85;;;3.72;;
44822;SDS011;51097;51.984;5.650;2023-09-19T06:56:56;15.73;;;2.70;;
44822;SDS011;51097;51.984;5.650;2023-09-19T06:59:23;12.20;;;3.08;;
44822;SDS011;51097;51.984;5.650;2023-09-19T07:01:49;12.23;;;3.20;;
44822;SDS011;51097;51.984;5.650;2023-09-19T07:04:15;12.38;;;2.50;;
44822;SDS011;51097;51.984;5.650;2023-09-19T07:06:41;8.60;;;2.95;;
44822;SDS011;51097;51.984;5.650;2023-09-19T07:09:07;9.45;;;2.28;;
44822;SDS011;51097;51.984;5.650;2023-09-19T07:11:33;8.77;;;2.83;;
44822;SDS011;51097;51.984;5.650;2023-09-19T07:13:59;7.88;;;2.13;;
44822;SDS011;51097;51.984;5.650;2023-09-19T07:16:28;12.40;;;2.60;;
44822;SDS011;51097;51.984;5.650;2023-09-19T07:18:55;8.93;;;2.53;;
44822;SDS011;51097;51.984;5.650;2023-09-19T07:21:21;10.07;;;2.67;;
44822;SDS011;51097;51.984;5.650;2023-09-19T07:23:47;10.35;;;2.95;;
44822;SDS011;51097;51.984;5.650;2023-09-19T07:26:14;9.27;;;2.80;;
44822;SDS011;51097;51.984;5.650;2023-09-19T07:28:40;9.30;;;2.05;;
44822;SDS011;51097;51.984;5.650;2023-09-19T07:31:06;12.20;;;2.88;;
44822;SDS011;51097;51.984;5.650;2023-09-19T07:33:34;12.73;;;2.60;;
44822;SDS011;51097;51.984;5.650;2023-09-19T07:36:01;12.70;;;3.13;;
44822;SDS011;51097;51.984;5.650;2023-09-19T07:38:26;12.48;;;3.88;;
44822;SDS011;51097;51.984;5.650;2023-09-19T07:40:52;10.52;;;3.10;;
44822;SDS011;51097;51.984;5.650;2023-09-19T07:43:18;12.15;;;2.60;;
44822;SDS011;51097;51.984;5.650;2023-09-19T07:45:43;9.73;;;2.58;;
44822;SDS011;51097;51.984;5.650;2023-09-19T07:48:09;11.20;;;2.85;;
44822;SDS011;51097;51.984;5.650;2023-09-19T07:50:39;8.93;;;2.28;;
44822;SDS011;51097;51.984;5.650;2023-09-19T07:53:08;9.07;;;2.70;;
44822;SDS011;51097;51.984;5.650;2023-09-19T07:55:34;7.13;;;2.40;;
44822;SDS011;51097;51.984;5.650;2023-09-19T07:57:59;11.02;;;2.75;;
44822;SDS011;51097;51.984;5.650;2023-09-19T08:00:25;11.57;;;3.13;;
44822;SDS011;51097;51.984;5.650;2023-09-19T08:02:51;12.00;;;3.50;;
44822;SDS011;51097;51.984;5.650;2023-09-19T08:05:17;9.68;;;2.83;;
44822;SDS011;51097;51.984;5.650;2023-09-19T08:07:46;11.95;;;2.90;;
44822;SDS011;51097;51.984;5.650;2023-09-19T08:10:15;11.90;;;3.15;;
44822;SDS011;51097;51.984;5.650;2023-09-19T08:12:44;14.23;;;3.42;;
44822;SDS011;51097;51.984;5.650;2023-09-19T08:17:46;10.70;;;3.28;;
44822;SDS011;51097;51.984;5.650;2023-09-19T08:20:13;19.60;;;2.97;;
44822;SDS011;51097;51.984;5.650;2023-09-19T08:22:47;10.23;;;3.28;;
44822;SDS011;51097;51.984;5.650;2023-09-19T08:25:17;11.85;;;2.05;;
44822;SDS011;51097;51.984;5.650;2023-09-19T08:27:47;11.68;;;2.90;;
44822;SDS011;51097;51.984;5.650;2023-09-19T08:30:17;10.55;;;2.65;;
44822;SDS011;51097;51.984;5.650;2023-09-19T08:32:45;9.80;;;2.72;;
44822;SDS011;51097;51.984;5.650;2023-09-19T08:35:13;12.32;;;4.25;;
44822;SDS011;51097;51.984;5.650;2023-09-19T08:37:39;16.77;;;2.88;;
44822;SDS011;51097;51.984;5.650;2023-09-19T08:40:05;13.70;;;3.20;;
44822;SDS011;51097;51.984;5.650;2023-09-19T08:42:49;12.63;;;3.78;;
44822;SDS011;51097;51.984;5.650;2023-09-19T08:45:16;11.40;;;2.40;;
44822;SDS011;51097;51.984;5.650;2023-09-19T08:47:46;10.15;;;3.08;;
44822;SDS011;51097;51.984;5.650;2023-09-19T08:50:19;15.13;;;3.50;;
44822;SDS011;51097;51.984;5.650;2023-09-19T08:52:55;9.73;;;2.65;;
44822;SDS011;51097;51.984;5.650;2023-09-19T08:55:28;19.23;;;4.18;;
44822;SDS011;51097;51.984;5.650;2023-09-19T08:58:02;18.10;;;2.88;;
44822;SDS011;51097;51.984;5.650;2023-09-19T09:00:29;11.90;;;2.67;;
44822;SDS011;51097;51.984;5.650;2023-09-19T09:02:56;8.73;;;2.83;;
44822;SDS011;51097;51.984;5.650;2023-09-19T09:05:23;10.27;;;2.55;;
44822;SDS011;51097;51.984;5.650;2023-09-19T09:07:49;13.38;;;2.45;;
44822;SDS011;51097;51.984;5.650;2023-09-19T09:10:17;10.30;;;2.55;;
44822;SDS011;51097;51.984;5.650;2023-09-19T09:12:52;13.13;;;3.55;;
44822;SDS011;51097;51.984;5.650;2023-09-19T09:15:21;8.90;;;2.35;;
44822;SDS011;51097;51.984;5.650;2023-09-19T09:17:48;11.07;;;2.83;;
44822;SDS011;51097;51.984;5.650;2023-09-19T09:20:15;13.05;;;2.70;;
44822;SDS011;51097;51.984;5.650;2023-09-19T09:22:52;12.15;;;2.60;;
44822;SDS011;51097;51.984;5.650;2023-09-19T09:25:19;15.20;;;3.42;;
44822;SDS011;51097;51.984;5.650;2023-09-19T09:27:58;8.60;;;3.75;;
44822;SDS011;51097;51.984;5.650;2023-09-19T09:30:34;13.25;;;3.72;;
44822;SDS011;51097;51.984;5.650;2023-09-19T09:33:08;15.05;;;2.95;;
44822;SDS011;51097;51.984;5.650;2023-09-19T09:35:53;14.25;;;3.75;;
44822;SDS011;51097;51.984;5.650;2023-09-19T09:38:27;8.65;;;2.55;;
44822;SDS011;51097;51.984;5.650;2023-09-19T09:40:58;12.20;;;2.90;;
44822;SDS011;51097;51.984;5.650;2023-09-19T09:43:38;9.75;;;2.60;;
44822;SDS011;51097;51.984;5.650;2023-09-19T09:46:15;9.20;;;2.50;;
44822;SDS011;51097;51.984;5.650;2023-09-19T09:48:48;12.77;;;2.30;;
44822;SDS011;51097;51.984;5.650;2023-09-19T09:51:38;8.60;;;2.47;;
44822;SDS011;51097;51.984;5.650;2023-09-19T09:54:23;8.63;;;2.92;;
44822;SDS011;51097;51.984;5.650;2023-09-19T10:02:40;13.10;;;3.03;;
44822;SDS011;51097;51.984;5.650;2023-09-19T10:07:43;12.98;;;3.30;;
44822;SDS011;51097;51.984;5.650;2023-09-19T10:10:29;9.48;;;2.08;;
44822;SDS011;51097;51.984;5.650;2023-09-19T10:12:55;8.60;;;2.92;;
44822;SDS011;51097;51.984;5.650;2023-09-19T10:15:27;6.93;;;2.25;;
44822;SDS011;51097;51.984;5.650;2023-09-19T10:17:57;7.78;;;2.03;;
44822;SDS011;51097;51.984;5.650;2023-09-19T10:20:26;9.15;;;2.35;;
44822;SDS011;51097;51.984;5.650;2023-09-19T10:23:09;8.45;;;2.78;;
44822;SDS011;51097;51.984;5.650;2023-09-19T10:25:37;18.35;;;3.83;;
44822;SDS011;51097;51.984;5.650;2023-09-19T10:28:07;8.73;;;2.53;;
44822;SDS011;51097;51.984;5.650;2023-09-19T10:30:39;10.82;;;2.08;;
44822;SDS011;51097;51.984;5.650;2023-09-19T10:33:10;11.82;;;2.60;;
44822;SDS011;51097;51.984;5.650;2023-09-19T10:35:43;10.25;;;3.17;;
44822;SDS011;51097;51.984;5.650;2023-09-19T10:38:11;9.13;;;2.28;;
44822;SDS011;51097;51.984;5.650;2023-09-19T10:40:39;8.98;;;2.28;;
44822;SDS011;51097;51.984;5.650;2023-09-19T10:43:18;12.68;;;2.47;;
44822;SDS011;51097;51.984;5.650;2023-09-19T10:45:46;10.07;;;2.22;;
44822;SDS011;51097;51.984;5.650;2023-09-19T10:48:14;12.13;;;2.65;;
44822;SDS011;51097;51.984;5.650;2023-09-19T10:50:51;8.43;;;2.58;;
44822;SDS011;51097;51.984;5.650;2023-09-19T10:53:24;10.93;;;1.92;;
44822;SDS011;51097;51.984;5.650;2023-09-19T10:55:53;7.97;;;2.28;;
44822;SDS011;51097;51.984;5.650;2023-09-19T10:58:25;9.52;;;2.30;;
44822;SDS011;51097;51.984;5.650;2023-09-19T11:00:55;8.50;;;2.25;;
44822;SDS011;51097;51.984;5.650;2023-09-19T11:03:22;6.38;;;1.50;;
44822;SDS011;51097;51.984;5.650;2023-09-19T11:08:52;11.18;;;2.92;;
44822;SDS011;51097;51.984;5.650;2023-09-19T11:11:47;9.15;;;2.60;;
44822;SDS011;51097;51.984;5.650;2023-09-19T11:30:30;7.90;;;2.50;;
44822;SDS011;51097;51.984;5.650;2023-09-19T11:36:03;7.20;;;2.13;;
44822;SDS011;51097;51.984;5.650;2023-09-19T11:43:45;6.00;;;2.05;;
44822;SDS011;51097;51.984;5.650;2023-09-19T11:46:11;8.07;;;1.70;;
44822;SDS011;51097;51.984;5.650;2023-09-19T11:48:41;5.07;;;1.77;;
44822;SDS011;51097;51.984;5.650;2023-09-19T11:51:27;4.97;;;1.92;;
44822;SDS011;51097;51.984;5.650;2023-09-19T11:53:53;8.45;;;1.88;;
44822;SDS011;51097;51.984;5.650;2023-09-19T11:56:26;4.75;;;1.27;;
44822;SDS011;51097;51.984;5.650;2023-09-19T11:58:57;14.77;;;1.70;;
44822;SDS011;51097;51.984;5.650;2023-09-19T12:01:31;6.90;;;1.67;;
44822;SDS011;51097;51.984;5.650;2023-09-19T12:03:59;5.93;;;1.63;;
44822;SDS011;51097;51.984;5.650;2023-09-19T12:06:27;5.80;;;1.88;;
44822;SDS011;51097;51.984;5.650;2023-09-19T12:08:54;7.25;;;1.92;;
44822;SDS011;51097;51.984;5.650;2023-09-19T12:11:22;6.40;;;1.27;;
44822;SDS011;51097;51.984;5.650;2023-09-19T12:13:48;5.32;;;1.85;;
44822;SDS011;51097;51.984;5.650;2023-09-19T12:16:18;7.75;;;2.63;;
44822;SDS011;51097;51.984;5.650;2023-09-19T12:18:48;5.28;;;1.15;;
44822;SDS011;51097;51.984;5.650;2023-09-19T12:21:30;6.85;;;1.50;;
44822;SDS011;51097;51.984;5.650;2023-09-19T12:24:13;4.20;;;1.20;;
44822;SDS011;51097;51.984;5.650;2023-09-19T12:26:42;4.90;;;1.40;;
44822;SDS011;51097;51.984;5.650;2023-09-19T12:29:17;5.38;;;1.35;;
44822;SDS011;51097;51.984;5.650;2023-09-19T12:31:47;5.50;;;1.25;;
44822;SDS011;51097;51.984;5.650;2023-09-19T12:34:19;6.82;;;1.45;;
44822;SDS011;51097;51.984;5.650;2023-09-19T12:36:47;5.18;;;1.55;;
44822;SDS011;51097;51.984;5.650;2023-09-19T12:39:23;3.25;;;1.45;;
44822;SDS011;51097;51.984;5.650;2023-09-19T12:41:50;7.65;;;1.40;;
44822;SDS011;51097;51.984;5.650;2023-09-19T12:44:18;7.75;;;1.38;;
44822;SDS011;51097;51.984;5.650;2023-09-19T12:46:44;3.47;;;1.35;;
44822;SDS011;51097;51.984;5.650;2023-09-19T12:51:43;3.85;;;1.00;;
44822;SDS011;51097;51.984;5.650;2023-09-19T12:54:10;4.18;;;1.42;;
44822;SDS011;51097;51.984;5.650;2023-09-19T12:56:39;7.22;;;2.10;;
44822;SDS011;51097;51.984;5.650;2023-09-19T12:59:09;4.82;;;1.30;;
44822;SDS011;51097;51.984;5.650;2023-09-19T13:01:38;2.60;;;0.85;;
44822;SDS011;51097;51.984;5.650;2023-09-19T13:06:45;4.03;;;1.10;;
44822;SDS011;51097;51.984;5.650;2023-09-19T13:09:14;3.13;;;1.08;;
44822;SDS011;51097;51.984;5.650;2023-09-19T13:11:41;4.25;;;1.35;;
44822;SDS011;51097;51.984;5.650;2023-09-19T13:14:24;2.80;;;1.13;;
44822;SDS011;51097;51.984;5.650;2023-09-19T13:17:05;5.00;;;1.23;;
44822;SDS011;51097;51.984;5.650;2023-09-19T13:19:42;6.47;;;1.35;;
44822;SDS011;51097;51.984;5.650;2023-09-19T13:25:10;7.80;;;1.55;;
44822;SDS011;51097;51.984;5.650;2023-09-19T13:27:43;3.22;;;1.00;;
44822;SDS011;51097;51.984;5.650;2023-09-19T13:30:10;5.97;;;2.10;;
44822;SDS011;51097;51.984;5.650;2023-09-19T13:32:36;3.03;;;1.02;;
44822;SDS011;51097;51.984;5.650;2023-09-19T13:35:03;4.97;;;1.48;;
44822;SDS011;51097;51.984;5.650;2023-09-19T13:37:30;5.07;;;2.05;;
44822;SDS011;51097;51.984;5.650;2023-09-19T13:40:00;4.03;;;1.25;;
44822;SDS011;51097;51.984;5.650;2023-09-19T13:42:25;2.17;;;0.98;;
44822;SDS011;51097;51.984;5.650;2023-09-19T13:44:54;4.35;;;1.20;;
44822;SDS011;51097;51.984;5.650;2023-09-19T13:47:21;4.18;;;1.10;;
44822;SDS011;51097;51.984;5.650;2023-09-19T13:49:49;3.88;;;0.95;;
44822;SDS011;51097;51.984;5.650;2023-09-19T13:52:18;2.67;;;0.85;;
44822;SDS011;51097;51.984;5.650;2023-09-19T13:54:44;4.28;;;1.00;;
44822;SDS011;51097;51.984;5.650;2023-09-19T13:57:09;2.92;;;1.10;;
44822;SDS011;51097;51.984;5.650;2023-09-19T13:59:35;8.88;;;1.60;;
44822;SDS011;51097;51.984;5.650;2023-09-19T14:02:01;3.05;;;0.90;;
44822;SDS011;51097;51.984;5.650;2023-09-19T14:04:30;5.93;;;1.55;;
44822;SDS011;51097;51.984;5.650;2023-09-19T14:06:56;5.03;;;0.82;;
44822;SDS011;51097;51.984;5.650;2023-09-19T14:09:23;4.43;;;1.05;;
44822;SDS011;51097;51.984;5.650;2023-09-19T14:11:49;2.65;;;0.70;;
44822;SDS011;51097;51.984;5.650;2023-09-19T14:14:17;2.63;;;1.25;;
44822;SDS011;51097;51.984;5.650;2023-09-19T14:16:49;5.32;;;1.05;;
44822;SDS011;51097;51.984;5.650;2023-09-19T14:19:17;3.50;;;1.30;;
44822;SDS011;51097;51.984;5.650;2023-09-19T14:21:43;4.43;;;1.40;;
44822;SDS011;51097;51.984;5.650;2023-09-19T14:24:08;4.82;;;1.30;;
44822;SDS011;51097;51.984;5.650;2023-09-19T14:26:35;1.45;;;0.88;;
44822;SDS011;51097;51.984;5.650;2023-09-19T14:29:01;4.10;;;1.00;;
44822;SDS011;51097;51.984;5.650;2023-09-19T14:31:27;5.72;;;1.08;;
44822;SDS011;51097;51.984;5.650;2023-09-19T14:33:53;2.28;;;0.80;;
44822;SDS011;51097;51.984;5.650;2023-09-19T14:36:20;6.80;;;2.20;;
44822;SDS011;51097;51.984;5.650;2023-09-19T14:38:46;6.70;;;2.08;;
44822;SDS011;51097;51.984;5.650;2023-09-19T14:41:12;2.20;;;0.85;;
44822;SDS011;51097;51.984;5.650;2023-09-19T14:43:38;3.13;;;1.00;;
44822;SDS011;51097;51.984;5.650;2023-09-19T14:48:35;4.30;;;1.10;;
44822;SDS011;51097;51.984;5.650;2023-09-19T14:51:05;6.15;;;1.20;;
44822;SDS011;51097;51.984;5.650;2023-09-19T14:53:33;7.50;;;2.38;;
44822;SDS011;51097;51.984;5.650;2023-09-19T14:56:00;4.75;;;1.33;;
44822;SDS011;51097;51.984;5.650;2023-09-19T15:01:03;4.85;;;1.15;;
44822;SDS011;51097;51.984;5.650;2023-09-19T15:03:29;6.00;;;1.20;;
44822;SDS011;51097;51.984;5.650;2023-09-19T15:06:02;6.30;;;1.00;;
44822;SDS011;51097;51.984;5.650;2023-09-19T15:08:29;2.70;;;0.93;;
44822;SDS011;51097;51.984;5.650;2023-09-19T15:13:28;7.23;;;1.60;;
44822;SDS011;51097;51.984;5.650;2023-09-19T15:15:58;5.55;;;1.35;;
44822;SDS011;51097;51.984;5.650;2023-09-19T15:18:26;5.40;;;1.73;;
44822;SDS011;51097;51.984;5.650;2023-09-19T15:20:51;7.40;;;1.40;;
44822;SDS011;51097;51.984;5.650;2023-09-19T15:23:18;6.45;;;1.80;;
44822;SDS011;51097;51.984;5.650;2023-09-19T15:25:47;4.65;;;1.45;;
44822;SDS011;51097;51.984;5.650;2023-09-19T15:28:14;3.78;;;1.23;;
44822;SDS011;51097;51.984;5.650;2023-09-19T15:30:39;3.55;;;1.35;;
44822;SDS011;51097;51.984;5.650;2023-09-19T15:33:05;7.22;;;1.30;;
44822;SDS011;51097;51.984;5.650;2023-09-19T15:35:30;1.83;;;1.42;;
44822;SDS011;51097;51.984;5.650;2023-09-19T15:37:56;5.43;;;1.25;;
44822;SDS011;51097;51.984;5.650;2023-09-19T15:40:23;4.93;;;1.52;;
44822;SDS011;51097;51.984;5.650;2023-09-19T15:42:50;2.28;;;1.25;;
44822;SDS011;51097;51.984;5.650;2023-09-19T15:45:15;2.70;;;1.50;;
44822;SDS011;51097;51.984;5.650;2023-09-19T15:47:43;5.30;;;1.13;;
44822;SDS011;51097;51.984;5.650;2023-09-19T15:50:09;7.88;;;1.83;;
44822;SDS011;51097;51.984;5.650;2023-09-19T15:52:38;3.15;;;1.63;;
44822;SDS011;51097;51.984;5.650;2023-09-19T15:55:05;3.38;;;1.38;;
44822;SDS011;51097;51.984;5.650;2023-09-19T15:57:36;3.92;;;1.25;;
44822;SDS011;51097;51.984;5.650;2023-09-19T16:00:02;7.30;;;1.83;;
44822;SDS011;51097;51.984;5.650;2023-09-19T16:02:30;3.85;;;1.63;;
44822;SDS011;51097;51.984;5.650;2023-09-19T16:04:56;4.22;;;1.50;;
44822;SDS011;51097;51.984;5.650;2023-09-19T16:07:21;3.65;;;1.10;;